createdAt,value
2017-12-05T05:23:59.023Z,2.97
2017-12-05T05:26:26.698Z,2.63
2017-12-05T05:28:54.278Z,2.98
2017-12-05T05:31:21.919Z,2.91
2017-12-05T05:33:49.737Z,2.66
2017-12-05T05:36:17.596Z,2.61
2017-12-05T05:38:45.998Z,2.64
2017-12-05T05:41:14.503Z,2.72
2017-12-05T05:43:42.111Z,3.46
2017-12-05T05:46:09.713Z,4.56
2017-12-05T05:48:37.785Z,4.96
2017-12-05T05:51:05.403Z,4.34
2017-12-05T05:53:33.071Z,4.00
2017-12-05T05:56:00.647Z,3.96
2017-12-05T05:58:28.296Z,3.99
2017-12-05T06:00:56.145Z,3.88
2017-12-05T06:03:24.426Z,3.87
2017-12-05T06:05:52.043Z,3.78
2017-12-05T06:08:20.536Z,3.97
2017-12-05T06:10:48.079Z,3.85
2017-12-05T06:13:15.716Z,3.88
2017-12-05T06:15:43.353Z,3.84
2017-12-05T06:18:10.908Z,4.07
2017-12-05T06:20:39.178Z,4.31
2017-12-05T06:23:06.806Z,3.84
2017-12-05T06:25:34.429Z,3.83
2017-12-05T06:28:02.016Z,4.10
2017-12-05T06:30:29.799Z,4.08
2017-12-05T06:32:57.387Z,3.51
2017-12-05T06:35:24.957Z,3.83
2017-12-05T06:37:52.544Z,4.13
2017-12-05T06:40:20.349Z,4.12
2017-12-05T06:42:47.974Z,4.29
2017-12-05T06:45:15.614Z,4.31
2017-12-05T06:47:43.264Z,4.16
2017-12-05T06:50:10.908Z,3.99
2017-12-05T06:52:38.899Z,4.17
2017-12-05T06:55:06.573Z,4.06
2017-12-05T06:57:34.348Z,3.97
2017-12-05T07:00:02.014Z,4.20
2017-12-05T07:02:29.791Z,4.01
2017-12-05T07:04:57.611Z,4.13
2017-12-05T07:07:25.311Z,4.07
2017-12-05T07:09:52.970Z,4.21
2017-12-05T07:12:20.631Z,3.92
2017-12-05T07:14:48.331Z,3.96
2017-12-05T07:17:15.937Z,3.99
2017-12-05T07:19:43.556Z,3.97
2017-12-05T07:22:11.162Z,4.12
2017-12-05T07:24:38.971Z,4.15
2017-12-05T07:27:06.590Z,4.27
2017-12-05T07:29:34.138Z,4.46
2017-12-05T07:32:01.974Z,4.42
2017-12-05T07:34:29.598Z,4.65
2017-12-05T07:36:57.180Z,4.30
2017-12-05T07:39:25.592Z,4.54
2017-12-05T07:41:53.231Z,4.71
2017-12-05T07:44:20.801Z,4.84
2017-12-05T07:46:48.601Z,5.19
2017-12-05T07:49:16.946Z,5.43
2017-12-05T07:51:44.566Z,5.55
2017-12-05T07:54:12.197Z,5.34
2017-12-05T07:56:41.646Z,5.22
2017-12-05T07:59:09.240Z,5.62
2017-12-05T08:01:36.861Z,4.96
2017-12-05T08:04:05.284Z,5.10
2017-12-05T08:06:33.111Z,4.89
2017-12-05T08:09:00.769Z,5.09
2017-12-05T08:11:28.342Z,5.37
2017-12-05T08:13:55.978Z,5.37
2017-12-05T08:16:23.545Z,5.29
2017-12-05T08:18:52.117Z,4.94
2017-12-05T08:21:19.733Z,5.00
2017-12-05T08:23:47.384Z,4.79
2017-12-05T08:26:14.945Z,4.91
2017-12-05T08:28:43.214Z,5.13
2017-12-05T08:31:12.285Z,5.01
2017-12-05T08:33:39.951Z,4.65
2017-12-05T08:36:07.483Z,4.66
2017-12-05T08:38:35.151Z,4.92
2017-12-05T08:41:02.787Z,5.08
2017-12-05T08:43:30.503Z,5.30
2017-12-05T08:45:58.134Z,5.42
2017-12-05T08:48:25.720Z,5.42
2017-12-05T08:50:53.849Z,5.26
2017-12-05T08:53:21.505Z,5.02
2017-12-05T08:55:49.078Z,4.87
2017-12-05T08:58:16.683Z,4.67
2017-12-05T09:00:44.288Z,4.50
2017-12-05T09:03:11.827Z,4.56
2017-12-05T09:05:39.437Z,4.53
2017-12-05T09:08:07.037Z,4.58
2017-12-05T09:10:35.810Z,4.49
2017-12-05T09:13:03.893Z,4.30
2017-12-05T09:15:31.763Z,4.61
2017-12-05T09:18:00.745Z,4.74
2017-12-05T09:20:28.319Z,4.75
2017-12-05T09:22:55.938Z,4.85
2017-12-05T09:25:23.643Z,4.86
2017-12-05T09:27:52.133Z,4.98
2017-12-05T09:30:20.754Z,4.64
2017-12-05T09:32:48.625Z,4.76
2017-12-05T09:35:16.438Z,4.72
2017-12-05T09:37:44.049Z,5.30
2017-12-05T09:40:11.632Z,5.23
2017-12-05T09:42:40.575Z,5.71
2017-12-05T09:45:08.185Z,6.30
2017-12-05T09:47:35.756Z,6.18
2017-12-05T09:50:03.406Z,5.76
2017-12-05T09:52:32.338Z,5.52
2017-12-05T09:55:00.370Z,5.12
2017-12-05T09:57:27.945Z,5.15
2017-12-05T09:59:55.608Z,5.32
2017-12-05T10:02:23.818Z,5.12
2017-12-05T10:04:51.950Z,4.71
2017-12-05T10:07:19.747Z,4.82
2017-12-05T10:09:47.391Z,5.02
2017-12-05T10:12:15.024Z,5.08
2017-12-05T10:14:42.665Z,5.22
2017-12-05T10:17:10.292Z,5.19
2017-12-05T10:19:37.993Z,5.33
2017-12-05T10:22:05.898Z,5.11
2017-12-05T10:24:33.601Z,4.98
2017-12-05T10:27:01.228Z,5.13
2017-12-05T10:29:28.865Z,4.94
2017-12-05T10:31:56.757Z,5.03
2017-12-05T10:34:24.941Z,5.08
2017-12-05T10:36:52.496Z,5.04
2017-12-05T10:39:20.298Z,4.89
2017-12-05T10:41:48.942Z,4.90
2017-12-05T10:44:16.771Z,4.68
2017-12-05T10:46:44.471Z,4.43
2017-12-05T10:49:12.256Z,4.16
2017-12-05T10:51:39.843Z,4.32
2017-12-05T10:54:07.481Z,4.36
2017-12-05T10:56:35.281Z,4.28
2017-12-05T10:59:04.078Z,4.58
2017-12-05T11:01:32.042Z,4.79
2017-12-05T11:03:59.681Z,5.02
2017-12-05T11:06:27.660Z,4.95
2017-12-05T11:08:55.278Z,5.33
2017-12-05T11:11:23.050Z,5.70
2017-12-05T11:13:51.669Z,5.60
2017-12-05T11:16:19.273Z,5.79
2017-12-05T11:18:47.605Z,6.18
2017-12-05T11:21:15.211Z,6.41
2017-12-05T11:23:43.135Z,6.14
2017-12-05T11:26:10.718Z,6.53
2017-12-05T11:28:38.705Z,6.89
2017-12-05T11:31:10.123Z,7.32
2017-12-05T11:33:38.728Z,7.38
2017-12-05T11:36:06.385Z,7.08
2017-12-05T11:38:33.972Z,6.40
2017-12-05T11:41:01.677Z,6.65
2017-12-05T11:43:29.315Z,6.84
2017-12-05T11:45:58.175Z,6.95
2017-12-05T11:48:25.916Z,6.86
2017-12-05T11:50:53.637Z,6.81
2017-12-05T11:53:21.383Z,6.84
2017-12-05T11:55:49.078Z,6.22
2017-12-05T11:58:16.775Z,5.87
2017-12-05T12:00:46.102Z,5.94
2017-12-05T12:03:14.026Z,6.11
2017-12-05T12:05:42.182Z,5.91
2017-12-05T12:08:09.917Z,5.84
2017-12-05T12:10:37.597Z,6.35
2017-12-05T12:13:05.279Z,6.26
2017-12-05T12:20:08.263Z,5.81
2017-12-05T12:22:35.951Z,5.65
2017-12-05T12:25:05.353Z,5.53
2017-12-05T12:27:32.991Z,5.42
2017-12-05T12:30:00.666Z,5.23
2017-12-05T12:32:28.837Z,5.02
2017-12-05T12:34:58.146Z,5.18
2017-12-05T12:37:25.784Z,5.15
2017-12-05T12:39:53.873Z,5.15
2017-12-05T12:42:21.543Z,4.99
2017-12-05T12:44:49.534Z,5.16
2017-12-05T12:47:17.234Z,5.07
2017-12-05T12:49:45.058Z,4.83
2017-12-05T12:52:12.872Z,4.93
2017-12-05T12:54:40.576Z,4.82
2017-12-05T12:57:08.205Z,4.75
2017-12-05T12:59:35.873Z,4.63
2017-12-05T13:02:03.681Z,4.66
2017-12-05T13:04:31.518Z,4.65
2017-12-05T13:06:59.252Z,4.67
2017-12-05T13:09:26.902Z,4.71
2017-12-05T13:11:55.469Z,4.63
2017-12-05T13:14:23.258Z,4.47
2017-12-05T13:16:51.251Z,4.52
2017-12-05T13:19:18.950Z,4.52
2017-12-05T13:21:46.825Z,4.60
2017-12-05T13:24:14.529Z,4.63
2017-12-05T13:26:42.183Z,4.61
2017-12-05T13:29:10.082Z,4.55
2017-12-05T13:31:37.812Z,4.58
2017-12-05T13:34:05.460Z,4.49
2017-12-05T13:36:33.469Z,4.56
2017-12-05T13:39:01.131Z,4.52
2017-12-05T13:41:28.868Z,4.52
2017-12-05T13:43:56.482Z,4.64
2017-12-05T13:46:24.969Z,4.71
2017-12-05T13:48:53.513Z,4.62
2017-12-05T13:51:21.349Z,4.56
2017-12-05T13:53:50.208Z,4.71
2017-12-05T13:56:17.830Z,4.57
2017-12-05T13:58:45.512Z,4.43
2017-12-05T14:01:13.229Z,4.41
2017-12-05T14:03:41.084Z,4.24
2017-12-05T14:06:08.739Z,4.30
2017-12-05T14:08:36.414Z,4.37
2017-12-05T14:11:04.642Z,4.22
2017-12-05T14:13:32.333Z,4.31
2017-12-05T14:16:00.211Z,4.11
2017-12-05T14:18:27.915Z,4.22
2017-12-05T14:20:55.712Z,4.07
2017-12-05T14:23:23.716Z,4.11
2017-12-05T14:29:29.707Z,4.25
2017-12-05T14:31:57.543Z,3.94
2017-12-05T14:34:25.241Z,4.03
2017-12-05T14:36:52.874Z,4.10
2017-12-05T14:39:22.228Z,4.03
2017-12-05T14:41:55.940Z,4.04
2017-12-05T14:44:25.556Z,3.92
2017-12-05T14:46:54.534Z,3.92
2017-12-05T14:49:22.490Z,3.83
2017-12-05T14:51:50.947Z,3.65
2017-12-05T14:54:52.910Z,3.74
2017-12-05T14:57:20.675Z,3.71
2017-12-05T14:59:48.300Z,3.61
2017-12-05T15:02:15.998Z,3.48
2017-12-05T15:04:44.967Z,3.64
2017-12-05T15:07:12.615Z,3.56
2017-12-05T15:09:44.956Z,3.56
2017-12-05T15:12:12.651Z,3.62
2017-12-05T15:14:40.341Z,3.63
2017-12-05T15:17:09.051Z,3.41
2017-12-05T15:19:36.722Z,3.51
2017-12-05T15:22:04.365Z,3.28
2017-12-05T15:24:32.200Z,3.55
2017-12-05T15:27:00.625Z,3.37
2017-12-05T15:29:30.098Z,3.17
2017-12-05T15:32:08.266Z,3.18
2017-12-05T15:34:36.982Z,3.28
2017-12-05T15:37:06.304Z,3.15
2017-12-05T15:39:34.022Z,3.09
2017-12-05T15:42:01.958Z,3.14
2017-12-05T15:44:30.622Z,3.19
2017-12-05T15:46:58.356Z,3.02
2017-12-05T15:49:26.087Z,2.98
2017-12-05T15:51:53.723Z,2.75
2017-12-05T15:54:21.447Z,2.92
2017-12-05T15:56:49.657Z,2.89
2017-12-05T15:59:17.300Z,2.90
2017-12-05T16:01:45.685Z,2.82
2017-12-05T16:04:14.932Z,2.88
2017-12-05T16:06:42.853Z,2.81
2017-12-05T16:09:13.147Z,2.77
2017-12-05T16:11:49.575Z,2.75
2017-12-05T16:14:17.220Z,2.69
2017-12-05T16:16:46.162Z,2.74
2017-12-05T16:21:47.609Z,2.58
2017-12-05T16:24:16.394Z,2.53
2017-12-05T16:26:44.055Z,2.64
2017-12-05T16:29:16.532Z,2.42
2017-12-05T16:31:55.844Z,2.47
2017-12-05T16:34:23.525Z,2.46
2017-12-05T16:37:19.032Z,2.44
2017-12-05T16:39:50.682Z,2.78
2017-12-05T16:42:22.459Z,2.64
2017-12-05T16:44:51.537Z,2.54
2017-12-05T16:47:21.948Z,2.52
2017-12-05T16:49:50.592Z,2.63
2017-12-05T16:52:21.463Z,2.54
2017-12-05T16:54:49.254Z,2.54
2017-12-05T16:57:20.217Z,2.69
2017-12-05T16:59:48.434Z,2.76
2017-12-05T17:02:16.468Z,2.67
2017-12-05T17:04:44.138Z,2.78
2017-12-05T17:07:11.884Z,2.72
2017-12-05T17:09:53.195Z,2.73
2017-12-05T17:16:04.307Z,2.58
2017-12-05T17:18:32.189Z,2.65
2017-12-05T17:21:03.284Z,2.64
2017-12-05T17:23:34.181Z,2.59
2017-12-05T17:26:02.783Z,2.52
2017-12-05T17:28:31.370Z,2.43
2017-12-05T17:31:00.031Z,2.59
2017-12-05T17:33:37.171Z,2.49
2017-12-05T17:46:03.628Z,2.71
2017-12-05T17:48:32.081Z,2.59
2017-12-05T17:51:00.369Z,2.68
2017-12-05T17:53:28.298Z,2.88
2017-12-05T17:55:57.908Z,2.81
2017-12-05T17:58:25.802Z,2.73
2017-12-05T18:00:53.609Z,2.71
2017-12-05T18:03:21.282Z,2.77
2017-12-05T18:05:50.419Z,2.72
2017-12-05T18:08:19.942Z,2.64
2017-12-05T18:10:47.927Z,2.52
2017-12-05T18:13:15.687Z,2.54
2017-12-05T18:15:43.541Z,2.57
2017-12-05T18:18:11.603Z,2.59
2017-12-05T18:20:39.378Z,2.40
2017-12-05T18:23:07.833Z,2.42
2017-12-05T18:25:36.140Z,2.43
2017-12-05T18:28:03.843Z,2.53
2017-12-05T18:30:31.607Z,2.28
2017-12-05T18:33:03.687Z,2.41
2017-12-05T18:35:32.295Z,2.51
2017-12-05T18:38:03.863Z,2.51
2017-12-05T18:40:31.733Z,2.34
2017-12-05T18:43:00.497Z,2.38
2017-12-05T18:45:28.251Z,2.30
2017-12-05T18:47:57.275Z,2.32
2017-12-05T18:50:25.711Z,2.41
2017-12-05T18:52:55.028Z,2.42
2017-12-05T18:55:44.304Z,2.51
2017-12-05T18:58:15.940Z,2.38
2017-12-05T19:00:44.972Z,2.39
2017-12-05T19:03:16.020Z,2.43
2017-12-05T19:05:43.978Z,2.28
2017-12-05T19:08:12.476Z,2.33
2017-12-05T19:10:40.230Z,2.24
2017-12-05T19:13:08.812Z,2.27
2017-12-05T19:15:38.261Z,2.28
2017-12-05T19:18:07.159Z,2.29
2017-12-05T19:20:34.913Z,2.29
2017-12-05T19:23:03.250Z,2.38
2017-12-05T19:25:34.527Z,2.30
2017-12-05T19:28:02.912Z,2.31
2017-12-05T19:30:30.873Z,2.29
2017-12-05T19:33:23.528Z,2.24
2017-12-05T19:39:02.885Z,2.37
2017-12-05T19:41:37.084Z,2.36
2017-12-05T19:58:13.759Z,2.48
2017-12-05T20:21:32.582Z,2.62
2017-12-05T20:30:50.875Z,2.80
2017-12-05T20:36:52.423Z,2.76
2017-12-05T20:39:22.673Z,2.69
2017-12-05T20:41:53.377Z,2.58
2017-12-05T20:44:22.209Z,2.53
2017-12-05T20:52:05.580Z,2.55
2017-12-05T20:57:16.442Z,2.56
2017-12-05T20:59:46.328Z,2.79
2017-12-05T21:02:18.598Z,2.73
2017-12-05T21:04:48.075Z,2.73
2017-12-05T21:07:20.496Z,2.67
2017-12-05T21:09:52.869Z,2.54
2017-12-05T21:12:21.435Z,2.47
2017-12-05T21:14:53.711Z,2.53
2017-12-05T21:17:24.864Z,2.34
2017-12-05T21:19:55.495Z,2.41
2017-12-05T21:26:22.079Z,2.38
2017-12-05T21:28:52.039Z,2.36
2017-12-05T21:31:29.943Z,2.25
2017-12-05T21:37:37.529Z,2.55
2017-12-05T21:49:36.508Z,2.43
2017-12-05T21:52:14.320Z,2.49
2017-12-05T21:58:18.739Z,2.21
2017-12-05T22:03:46.753Z,2.43
2017-12-05T22:38:14.233Z,2.42
2017-12-05T22:40:42.001Z,2.61
2017-12-05T22:43:10.144Z,2.53
2017-12-05T22:45:37.913Z,2.45
2017-12-05T22:48:05.636Z,2.30
2017-12-05T22:50:33.435Z,2.32
2017-12-05T22:53:01.299Z,2.48
2017-12-05T22:55:29.301Z,2.26
2017-12-05T23:00:29.528Z,2.52
2017-12-05T23:02:59.127Z,2.56
2017-12-05T23:05:27.172Z,2.68
2017-12-05T23:07:55.087Z,2.48
2017-12-05T23:10:23.276Z,2.72
2017-12-05T23:12:51.408Z,2.86
2017-12-05T23:15:19.896Z,3.05
2017-12-05T23:17:47.623Z,3.02
2017-12-05T23:20:15.361Z,2.95
2017-12-05T23:22:42.986Z,3.22
2017-12-05T23:25:10.661Z,3.30
2017-12-05T23:27:38.536Z,3.37
2017-12-05T23:30:07.200Z,3.27
2017-12-05T23:32:37.780Z,3.09
2017-12-05T23:35:06.555Z,3.33
2017-12-05T23:37:34.599Z,3.44
2017-12-05T23:40:02.304Z,3.46
2017-12-05T23:42:30.100Z,3.55
2017-12-05T23:44:59.675Z,3.80
2017-12-05T23:47:28.769Z,3.25
2017-12-05T23:49:56.639Z,3.61
2017-12-05T23:52:24.603Z,3.85
2017-12-05T23:54:52.419Z,3.84
2017-12-05T23:57:20.276Z,3.90
2017-12-05T23:59:48.561Z,3.83
